createdAt,value
2023-03-19T00:01:08.300Z,6.77
2023-03-19T00:03:37.539Z,6.74
2023-03-19T00:06:06.673Z,6.72
2023-03-19T00:08:35.423Z,6.68
2023-03-19T00:11:08.496Z,6.70
2023-03-19T00:13:37.507Z,6.69
2023-03-19T00:16:08.822Z,6.68
2023-03-19T00:18:37.392Z,6.67
2023-03-19T00:21:06.582Z,6.64
2023-03-19T00:23:36.276Z,6.63
2023-03-19T00:26:05.216Z,6.65
2023-03-19T00:28:34.060Z,6.67
2023-03-19T00:31:11.637Z,6.70
2023-03-19T00:33:41.023Z,6.74
2023-03-19T00:36:11.905Z,6.42
2023-03-19T00:38:42.039Z,6.71
2023-03-19T00:41:10.863Z,6.71
2023-03-19T00:43:39.742Z,6.72
2023-03-19T00:46:10.199Z,6.80
2023-03-19T00:48:38.979Z,6.88
2023-03-19T00:51:12.057Z,6.88
2023-03-19T00:53:42.209Z,6.86
2023-03-19T00:56:12.571Z,6.83
2023-03-19T00:58:42.100Z,6.78
2023-03-19T01:01:14.445Z,6.80
2023-03-19T01:03:44.984Z,6.80
2023-03-19T01:06:14.452Z,6.76
2023-03-19T01:08:43.213Z,6.72
2023-03-19T01:11:15.343Z,6.63
2023-03-19T01:13:44.207Z,6.68
2023-03-19T01:16:14.897Z,6.68
2023-03-19T01:18:43.617Z,6.70
2023-03-19T01:21:12.650Z,6.71
2023-03-19T01:23:47.488Z,6.70
2023-03-19T01:26:18.158Z,6.75
2023-03-19T01:28:48.316Z,6.76
2023-03-19T01:31:18.918Z,6.79
2023-03-19T01:34:06.565Z,6.80
2023-03-19T01:36:44.132Z,6.77
2023-03-19T01:39:14.110Z,6.75
2023-03-19T01:41:42.952Z,6.78
2023-03-19T01:44:42.294Z,6.81
2023-03-19T01:47:37.017Z,6.63
2023-03-19T01:50:29.880Z,6.85
2023-03-19T01:53:20.172Z,6.89
2023-03-19T01:56:09.898Z,6.97
2023-03-19T01:58:58.186Z,7.04
2023-03-19T02:01:54.706Z,7.09
2023-03-19T02:04:26.074Z,6.73
2023-03-19T02:06:56.606Z,7.15
2023-03-19T02:09:28.298Z,7.16
2023-03-19T02:11:57.686Z,7.15
2023-03-19T02:14:26.702Z,7.16
2023-03-19T02:16:56.384Z,7.18
2023-03-19T02:19:33.426Z,7.18
2023-03-19T02:22:03.393Z,7.17
2023-03-19T02:24:37.479Z,7.22
2023-03-19T02:27:15.467Z,7.24
2023-03-19T02:29:49.444Z,7.26
2023-03-19T02:32:18.650Z,7.27
2023-03-19T02:34:47.521Z,7.29
2023-03-19T02:37:22.233Z,7.36
2023-03-19T02:40:00.491Z,7.39
2023-03-19T02:42:31.372Z,7.43
2023-03-19T02:45:00.247Z,7.45
2023-03-19T02:47:29.319Z,7.46
2023-03-19T02:49:58.196Z,7.47
2023-03-19T02:52:27.755Z,7.50
2023-03-19T02:54:56.694Z,7.51
2023-03-19T02:57:26.417Z,7.52
2023-03-19T02:59:56.608Z,7.51
2023-03-19T03:02:25.199Z,7.52
2023-03-19T03:04:53.996Z,7.52
2023-03-19T03:07:23.006Z,7.53
2023-03-19T03:09:51.744Z,7.53
2023-03-19T03:12:20.405Z,7.58
2023-03-19T03:14:49.466Z,7.61
2023-03-19T03:17:20.067Z,7.68
2023-03-19T03:19:48.856Z,7.29
2023-03-19T03:22:17.565Z,7.80
2023-03-19T03:24:46.607Z,7.85
2023-03-19T03:27:15.303Z,7.90
2023-03-19T03:29:44.050Z,7.94
2023-03-19T03:32:13.020Z,7.99
2023-03-19T03:34:43.375Z,8.04
2023-03-19T03:37:12.172Z,8.09
2023-03-19T03:39:40.975Z,8.16
2023-03-19T03:42:10.232Z,8.20
2023-03-19T03:44:40.084Z,8.26
2023-03-19T03:47:09.549Z,8.29
2023-03-19T03:49:38.356Z,8.32
2023-03-19T03:52:09.285Z,8.35
2023-03-19T03:54:41.509Z,8.40
2023-03-19T03:57:10.385Z,8.41
2023-03-19T03:59:39.132Z,8.44
2023-03-19T04:02:08.564Z,8.43
2023-03-19T04:04:37.440Z,8.45
2023-03-19T04:07:07.841Z,8.46
2023-03-19T04:09:54.694Z,8.48
2023-03-19T04:12:23.499Z,8.49
2023-03-19T04:14:52.226Z,8.51
2023-03-19T04:17:20.972Z,8.52
2023-03-19T04:19:49.685Z,8.53
2023-03-19T04:22:19.805Z,8.53
2023-03-19T04:24:48.652Z,8.56
2023-03-19T04:27:17.553Z,8.59
2023-03-19T04:29:46.513Z,8.59
2023-03-19T04:32:15.898Z,8.59
2023-03-19T04:34:44.952Z,8.58
2023-03-19T04:37:13.892Z,8.54
2023-03-19T04:39:50.038Z,8.50
2023-03-19T04:42:19.351Z,8.43
2023-03-19T04:44:57.328Z,8.32
2023-03-19T04:47:26.130Z,8.26
2023-03-19T04:49:58.630Z,8.17
2023-03-19T04:52:29.310Z,8.09
2023-03-19T04:54:59.524Z,7.99
2023-03-19T04:57:28.669Z,7.91
2023-03-19T04:59:58.551Z,7.82
2023-03-19T05:02:28.238Z,7.78
2023-03-19T05:04:57.479Z,7.76
2023-03-19T05:07:26.411Z,7.75
2023-03-19T05:09:55.740Z,7.72
2023-03-19T05:12:26.077Z,7.70
2023-03-19T05:14:56.574Z,7.67
2023-03-19T05:17:35.766Z,7.66
2023-03-19T05:20:16.583Z,7.62
2023-03-19T05:22:52.055Z,7.61
2023-03-19T05:25:21.771Z,7.62
2023-03-19T05:27:52.051Z,7.62
2023-03-19T05:30:24.901Z,7.61
2023-03-19T05:33:13.920Z,7.64
2023-03-19T05:35:46.025Z,7.68
2023-03-19T05:38:27.394Z,7.36
2023-03-19T05:41:06.029Z,7.84
2023-03-19T05:43:53.692Z,7.85
2023-03-19T05:46:39.470Z,7.88
2023-03-19T05:49:08.412Z,7.91
2023-03-19T05:51:37.433Z,7.89
2023-03-19T05:54:09.106Z,7.91
2023-03-19T05:56:41.765Z,7.90
2023-03-19T05:59:27.817Z,7.92
2023-03-19T06:02:12.737Z,7.99
2023-03-19T06:04:42.343Z,8.04
2023-03-19T06:07:11.761Z,8.09
2023-03-19T06:09:42.726Z,8.16
2023-03-19T06:12:13.673Z,8.24
2023-03-19T06:14:48.101Z,8.32
2023-03-19T06:17:55.376Z,8.44
2023-03-19T06:20:25.433Z,8.51
2023-03-19T06:22:54.788Z,8.60
2023-03-19T06:25:24.550Z,8.68
2023-03-19T06:27:54.064Z,8.77
2023-03-19T06:30:29.080Z,8.87
2023-03-19T06:33:01.717Z,8.96
2023-03-19T06:35:30.847Z,9.01
2023-03-19T06:37:59.660Z,9.06
2023-03-19T06:40:28.382Z,9.15
2023-03-19T06:42:57.111Z,9.24
2023-03-19T06:45:25.955Z,9.33
2023-03-19T06:47:56.112Z,9.45
2023-03-19T06:50:24.852Z,9.59
2023-03-19T06:52:53.631Z,9.72
2023-03-19T06:55:22.408Z,9.80
2023-03-19T06:57:51.846Z,9.86
2023-03-19T07:00:21.417Z,9.94
2023-03-19T07:02:50.608Z,10.02
2023-03-19T07:05:20.856Z,10.10
2023-03-19T07:07:49.613Z,10.19
2023-03-19T07:10:20.227Z,10.28
2023-03-19T07:12:49.309Z,10.35
2023-03-19T07:15:20.260Z,10.50
2023-03-19T07:17:49.400Z,10.67
2023-03-19T07:20:19.973Z,10.92
2023-03-19T07:22:48.661Z,11.15
2023-03-19T07:25:17.395Z,11.38
2023-03-19T07:27:46.915Z,11.55
2023-03-19T07:30:16.806Z,11.71
2023-03-19T07:32:45.555Z,11.73
2023-03-19T07:35:14.439Z,11.75
2023-03-19T07:37:45.392Z,11.81
2023-03-19T07:40:14.461Z,11.99
2023-03-19T07:42:45.102Z,12.09
2023-03-19T07:45:14.919Z,12.17
2023-03-19T07:47:43.681Z,12.23
2023-03-19T07:50:13.278Z,12.25
2023-03-19T07:52:41.981Z,12.29
2023-03-19T07:55:12.443Z,12.37
2023-03-19T07:57:41.284Z,12.50
2023-03-19T08:00:12.138Z,12.59
2023-03-19T08:02:46.066Z,12.75
2023-03-19T08:05:14.932Z,12.94
2023-03-19T08:07:43.853Z,13.08
2023-03-19T08:10:14.165Z,12.75
2023-03-19T08:12:42.875Z,13.53
2023-03-19T08:15:12.724Z,13.76
2023-03-19T08:17:41.517Z,14.02
2023-03-19T08:20:12.526Z,14.30
2023-03-19T08:22:41.871Z,14.55
2023-03-19T08:25:12.009Z,14.65
2023-03-19T08:27:42.185Z,14.77
2023-03-19T08:30:15.719Z,14.97
2023-03-19T08:32:45.082Z,15.20
2023-03-19T08:35:14.161Z,15.33
2023-03-19T08:37:42.914Z,15.30
2023-03-19T08:40:12.781Z,15.25
2023-03-19T08:42:44.966Z,15.27
2023-03-19T08:45:15.580Z,15.15
2023-03-19T08:47:44.726Z,15.14
2023-03-19T08:50:14.104Z,15.05
2023-03-19T08:52:43.054Z,14.98
2023-03-19T08:55:12.056Z,14.95
2023-03-19T08:57:42.271Z,14.90
2023-03-19T09:00:12.532Z,14.90
2023-03-19T09:02:41.375Z,14.90
2023-03-19T09:05:10.533Z,14.87
2023-03-19T09:07:41.229Z,14.89
2023-03-19T09:10:11.126Z,14.88
2023-03-19T09:12:44.147Z,14.75
2023-03-19T09:15:14.390Z,14.70
2023-03-19T09:17:43.234Z,14.58
2023-03-19T09:20:12.553Z,14.29
2023-03-19T09:22:41.328Z,14.59
2023-03-19T09:25:10.997Z,14.66
2023-03-19T09:27:39.788Z,14.82
2023-03-19T09:30:10.522Z,14.99
2023-03-19T09:32:40.850Z,15.08
2023-03-19T09:35:10.643Z,15.15
2023-03-19T09:37:39.565Z,15.23
2023-03-19T09:40:17.332Z,15.37
2023-03-19T09:42:59.920Z,15.48
2023-03-19T09:45:30.775Z,15.48
2023-03-19T09:48:06.897Z,15.49
2023-03-19T09:50:36.436Z,15.57
2023-03-19T09:53:19.307Z,15.66
2023-03-19T09:55:50.726Z,15.64
2023-03-19T09:58:22.828Z,15.70
2023-03-19T10:00:53.352Z,15.68
2023-03-19T10:03:44.857Z,15.65
2023-03-19T10:06:26.735Z,15.76
2023-03-19T10:09:31.703Z,15.97
2023-03-19T10:12:19.141Z,16.14
2023-03-19T10:15:15.865Z,16.37
2023-03-19T10:17:55.897Z,16.45
2023-03-19T10:20:32.370Z,16.51
2023-03-19T10:23:15.008Z,16.73
2023-03-19T10:25:46.466Z,16.33
2023-03-19T10:28:18.729Z,16.96
2023-03-19T10:30:57.073Z,16.97
2023-03-19T10:33:33.833Z,16.94
2023-03-19T10:36:27.678Z,16.95
2023-03-19T10:38:56.690Z,16.86
2023-03-19T10:41:48.408Z,17.14
2023-03-19T10:44:29.974Z,17.26
2023-03-19T10:47:12.920Z,17.14
2023-03-19T10:49:42.090Z,17.35
2023-03-19T10:52:22.503Z,17.34
2023-03-19T10:54:58.526Z,17.29
2023-03-19T10:57:31.842Z,17.22
2023-03-19T11:00:11.070Z,17.28
2023-03-19T11:02:48.721Z,17.21
2023-03-19T11:05:31.913Z,17.43
2023-03-19T11:08:04.246Z,17.50
2023-03-19T11:10:36.068Z,17.50
2023-03-19T11:13:08.690Z,16.52
2023-03-19T11:15:39.838Z,17.58
2023-03-19T11:18:17.486Z,17.63
2023-03-19T11:20:56.848Z,17.66
2023-03-19T11:23:32.215Z,17.70
2023-03-19T11:26:02.981Z,17.95
2023-03-19T11:28:38.818Z,17.75
2023-03-19T11:31:14.716Z,18.39
2023-03-19T11:34:06.662Z,17.93
2023-03-19T11:36:41.958Z,18.04
2023-03-19T11:39:30.526Z,17.88
2023-03-19T11:42:40.952Z,18.19
2023-03-19T11:45:19.686Z,18.40
2023-03-19T11:48:07.116Z,18.31
2023-03-19T11:50:51.231Z,17.47
2023-03-19T11:53:29.389Z,18.42
2023-03-19T11:56:15.807Z,18.72
2023-03-19T11:59:19.228Z,19.07
2023-03-19T12:02:26.986Z,19.43
2023-03-19T12:05:24.488Z,19.69
2023-03-19T12:08:19.005Z,19.50
2023-03-19T12:11:05.944Z,19.24
2023-03-19T12:13:45.762Z,19.93
2023-03-19T12:16:25.201Z,19.84
2023-03-19T12:19:18.674Z,19.66
2023-03-19T12:22:00.106Z,19.58
2023-03-19T12:24:38.049Z,19.54
2023-03-19T12:27:21.548Z,19.20
2023-03-19T12:29:58.699Z,19.35
2023-03-19T12:32:37.896Z,19.46
2023-03-19T12:35:16.756Z,19.41
2023-03-19T12:37:54.843Z,19.57
2023-03-19T12:40:36.972Z,19.50
2023-03-19T12:43:20.355Z,19.40
2023-03-19T12:45:58.156Z,19.35
2023-03-19T12:48:33.797Z,19.14
2023-03-19T12:51:09.808Z,19.21
2023-03-19T12:53:48.436Z,19.23
2023-03-19T12:56:28.599Z,18.98
2023-03-19T12:59:05.426Z,19.03
2023-03-19T13:01:39.178Z,18.88
2023-03-19T13:04:13.626Z,18.71
2023-03-19T13:06:49.191Z,18.24
2023-03-19T13:09:27.402Z,18.60
2023-03-19T13:12:07.972Z,17.83
2023-03-19T13:14:53.254Z,18.58
2023-03-19T13:17:28.569Z,18.62
2023-03-19T13:19:59.539Z,18.60
2023-03-19T13:22:34.108Z,18.57
2023-03-19T13:25:04.577Z,18.47
2023-03-19T13:27:36.948Z,18.66
2023-03-19T13:30:20.013Z,18.69
2023-03-19T13:32:51.823Z,18.64
2023-03-19T13:35:41.729Z,18.53
2023-03-19T13:38:21.157Z,17.99
2023-03-19T13:40:51.790Z,18.27
2023-03-19T13:43:43.164Z,18.15
2023-03-19T13:46:37.556Z,17.94
2023-03-19T13:49:35.433Z,17.78
2023-03-19T13:52:48.417Z,17.87
2023-03-19T13:55:50.754Z,18.05
2023-03-19T13:58:43.422Z,18.27
2023-03-19T14:01:28.900Z,18.51
2023-03-19T14:04:02.054Z,18.73
2023-03-19T14:06:39.393Z,18.78
2023-03-19T14:09:33.607Z,19.03
2023-03-19T14:12:26.228Z,19.16
2023-03-19T14:15:00.279Z,19.16
2023-03-19T14:17:33.506Z,19.22
2023-03-19T14:20:35.450Z,19.21
2023-03-19T14:23:26.256Z,19.25
2023-03-19T14:26:12.164Z,19.18
2023-03-19T14:28:56.426Z,19.15
2023-03-19T14:31:35.463Z,19.07
2023-03-19T14:34:14.677Z,19.05
2023-03-19T14:36:50.122Z,18.97
2023-03-19T14:39:24.844Z,18.83
2023-03-19T14:42:01.871Z,18.73
2023-03-19T14:45:36.273Z,18.64
2023-03-19T14:48:48.224Z,18.61
2023-03-19T14:51:39.675Z,18.49
2023-03-19T14:54:25.735Z,18.44
2023-03-19T14:56:57.656Z,18.38
2023-03-19T14:59:27.847Z,18.26
2023-03-19T15:01:57.228Z,18.13
2023-03-19T15:04:27.446Z,18.06
2023-03-19T15:07:01.409Z,17.97
2023-03-19T15:09:34.844Z,17.82
2023-03-19T15:12:34.487Z,17.73
2023-03-19T15:15:44.455Z,17.74
2023-03-19T15:18:16.889Z,17.66
2023-03-19T15:20:51.024Z,17.62
2023-03-19T15:23:27.371Z,17.58
2023-03-19T15:26:01.580Z,17.55
2023-03-19T15:28:33.187Z,17.42
2023-03-19T15:31:19.534Z,17.31
2023-03-19T15:33:53.187Z,17.16
2023-03-19T15:36:27.282Z,17.05
2023-03-19T15:38:59.549Z,16.95
2023-03-19T15:41:36.070Z,16.89
2023-03-19T15:44:10.415Z,16.81
2023-03-19T15:46:42.787Z,16.73
2023-03-19T15:49:20.132Z,16.61
2023-03-19T15:51:53.824Z,16.49
2023-03-19T15:54:23.632Z,16.38
2023-03-19T15:56:54.398Z,16.28
2023-03-19T15:59:30.023Z,16.24
2023-03-19T16:02:01.578Z,16.20
2023-03-19T16:04:38.581Z,16.15
2023-03-19T16:07:27.050Z,16.08
2023-03-19T16:09:55.950Z,16.04
2023-03-19T16:12:38.563Z,15.96
2023-03-19T16:15:30.841Z,15.86
2023-03-19T16:18:23.353Z,15.78
2023-03-19T16:21:07.087Z,15.74
2023-03-19T16:23:38.005Z,15.69
2023-03-19T16:26:18.155Z,15.63
2023-03-19T16:28:57.493Z,15.58
2023-03-19T16:31:31.946Z,15.53
2023-03-19T16:34:03.608Z,15.46
2023-03-19T16:36:34.298Z,15.37
2023-03-19T16:39:27.850Z,15.29
2023-03-19T16:42:29.048Z,15.19
2023-03-19T16:45:03.213Z,15.09
2023-03-19T16:47:32.047Z,15.00
2023-03-19T16:50:00.820Z,14.93
2023-03-19T16:52:30.071Z,14.83
2023-03-19T16:55:00.430Z,14.77
2023-03-19T16:57:29.753Z,14.67
2023-03-19T17:00:00.494Z,14.56
2023-03-19T17:02:29.367Z,14.47
2023-03-19T17:04:58.247Z,14.38
2023-03-19T17:07:27.058Z,14.32
2023-03-19T17:09:56.214Z,14.26
2023-03-19T17:12:25.426Z,14.20
2023-03-19T17:14:54.647Z,14.15
2023-03-19T17:17:24.819Z,14.09
2023-03-19T17:19:53.751Z,14.02
2023-03-19T17:22:23.364Z,13.97
2023-03-19T17:24:52.426Z,13.92
2023-03-19T17:27:21.328Z,13.88
2023-03-19T17:29:51.056Z,13.87
2023-03-19T17:32:21.678Z,13.85
2023-03-19T17:34:51.903Z,13.83
2023-03-19T17:37:20.815Z,13.82
2023-03-19T17:39:49.752Z,13.80
2023-03-19T17:42:21.380Z,13.75
2023-03-19T17:44:50.153Z,13.71
2023-03-19T17:47:19.743Z,13.67
2023-03-19T17:49:50.029Z,13.66
2023-03-19T17:52:20.137Z,13.63
2023-03-19T17:54:48.928Z,13.60
2023-03-19T17:57:18.126Z,13.57
2023-03-19T17:59:46.940Z,13.55
2023-03-19T18:02:32.624Z,13.52
2023-03-19T18:05:02.831Z,13.48
2023-03-19T18:07:31.792Z,13.45
2023-03-19T18:10:02.534Z,13.41
2023-03-19T18:12:31.430Z,13.39
2023-03-19T18:15:00.419Z,13.39
2023-03-19T18:17:29.270Z,13.36
2023-03-19T18:19:58.367Z,13.34
2023-03-19T18:22:29.193Z,13.32
2023-03-19T18:24:58.174Z,13.31
2023-03-19T18:27:27.169Z,13.29
2023-03-19T18:29:56.049Z,13.28
2023-03-19T18:32:30.918Z,13.25
2023-03-19T18:34:59.851Z,13.21
2023-03-19T18:37:37.518Z,13.18
2023-03-19T18:40:06.998Z,13.15
2023-03-19T18:42:35.781Z,13.12
2023-03-19T18:45:05.001Z,13.10
2023-03-19T18:47:34.305Z,13.06
2023-03-19T18:50:03.032Z,13.07
2023-03-19T18:52:33.221Z,13.06
2023-03-19T18:55:01.975Z,13.04
2023-03-19T18:57:31.287Z,13.03
2023-03-19T19:00:01.659Z,13.01
2023-03-19T19:02:35.049Z,12.99
2023-03-19T19:05:04.878Z,12.99
2023-03-19T19:07:35.345Z,12.98
2023-03-19T19:10:05.337Z,12.97
2023-03-19T19:12:35.185Z,12.94
2023-03-19T19:15:06.053Z,12.91
2023-03-19T19:17:40.713Z,12.87
2023-03-19T19:20:17.137Z,12.82
2023-03-19T19:22:51.480Z,12.73
2023-03-19T19:25:22.813Z,12.66
2023-03-19T19:27:58.653Z,12.62
2023-03-19T19:30:30.295Z,12.57
2023-03-19T19:32:59.766Z,12.53
2023-03-19T19:35:32.248Z,12.52
2023-03-19T19:38:02.724Z,12.52
2023-03-19T19:40:34.198Z,12.50
2023-03-19T19:43:03.378Z,12.47
2023-03-19T19:45:36.533Z,12.41
2023-03-19T19:48:11.133Z,12.40
2023-03-19T19:50:39.921Z,12.42
2023-03-19T19:53:11.658Z,12.43
2023-03-19T19:55:41.513Z,12.44
2023-03-19T19:58:19.312Z,12.43
2023-03-19T20:01:02.300Z,12.42
2023-03-19T20:03:34.771Z,12.45
2023-03-19T20:06:04.134Z,12.44
2023-03-19T20:08:34.709Z,12.45
2023-03-19T20:11:04.047Z,12.45
2023-03-19T20:13:36.869Z,12.45
2023-03-19T20:16:06.569Z,12.45
2023-03-19T20:18:36.070Z,12.44
2023-03-19T20:21:07.125Z,12.44
2023-03-19T20:23:39.385Z,12.44
2023-03-19T20:26:08.505Z,12.46
2023-03-19T20:28:37.626Z,12.45
2023-03-19T20:31:06.880Z,12.45
2023-03-19T20:33:37.466Z,12.41
2023-03-19T20:36:07.222Z,12.37
2023-03-19T20:38:37.466Z,12.34
2023-03-19T20:41:15.844Z,12.31
2023-03-19T20:43:44.681Z,12.26
2023-03-19T20:46:13.792Z,12.23
2023-03-19T20:48:42.593Z,12.21
2023-03-19T20:51:18.068Z,12.15
2023-03-19T20:53:49.506Z,12.10
2023-03-19T20:56:19.997Z,12.07
2023-03-19T20:58:49.121Z,12.05
2023-03-19T21:01:18.607Z,12.03
2023-03-19T21:03:47.517Z,12.01
2023-03-19T21:06:19.601Z,12.00
2023-03-19T21:08:53.239Z,12.01
2023-03-19T21:11:23.701Z,12.02
2023-03-19T21:13:53.988Z,12.01
2023-03-19T21:16:25.481Z,12.01
2023-03-19T21:18:55.003Z,12.02
2023-03-19T21:21:29.730Z,12.01
2023-03-19T21:24:05.009Z,12.04
2023-03-19T21:26:38.507Z,12.02
2023-03-19T21:29:10.525Z,12.03
2023-03-19T21:31:39.397Z,12.04
2023-03-19T21:34:08.247Z,12.02
2023-03-19T21:36:37.218Z,11.58
2023-03-19T21:39:07.362Z,12.02
2023-03-19T21:41:37.268Z,12.03
2023-03-19T21:44:08.477Z,12.04
2023-03-19T21:46:37.823Z,12.01
2023-03-19T21:49:12.166Z,12.03
2023-03-19T21:51:42.688Z,12.00
2023-03-19T21:54:12.824Z,12.00
2023-03-19T21:56:44.102Z,12.00
2023-03-19T21:59:16.953Z,11.98
2023-03-19T22:01:46.649Z,11.95
2023-03-19T22:04:15.461Z,11.91
2023-03-19T22:06:44.253Z,11.88
2023-03-19T22:09:14.416Z,11.82
2023-03-19T22:11:44.110Z,11.77
2023-03-19T22:14:19.124Z,11.73
2023-03-19T22:16:52.399Z,11.69
2023-03-19T22:19:21.925Z,11.70
2023-03-19T22:21:50.785Z,11.68
2023-03-19T22:24:20.990Z,11.66
2023-03-19T22:26:56.416Z,11.65
2023-03-19T22:29:26.435Z,11.62
2023-03-19T22:31:56.692Z,11.60
2023-03-19T22:34:28.843Z,11.56
2023-03-19T22:36:57.772Z,11.54
2023-03-19T22:39:27.843Z,11.53
2023-03-19T22:41:56.600Z,11.52
2023-03-19T22:44:29.242Z,11.52
2023-03-19T22:46:59.990Z,11.50
2023-03-19T22:49:29.943Z,11.51
2023-03-19T22:51:59.148Z,11.49
2023-03-19T22:54:29.357Z,11.46
2023-03-19T22:56:58.044Z,11.44
2023-03-19T22:59:27.907Z,11.43
2023-03-19T23:01:58.001Z,11.40
2023-03-19T23:04:30.584Z,11.11
2023-03-19T23:09:45.206Z,11.32
2023-03-19T23:12:14.029Z,11.30
2023-03-19T23:14:42.781Z,11.29
2023-03-19T23:17:18.547Z,11.27
2023-03-19T23:19:47.285Z,11.24
2023-03-19T23:22:17.694Z,11.22
2023-03-19T23:24:47.928Z,11.20
2023-03-19T23:27:24.147Z,11.18
2023-03-19T23:29:53.169Z,11.17
2023-03-19T23:32:22.036Z,11.14
2023-03-19T23:34:59.505Z,11.13
2023-03-19T23:37:30.039Z,11.16
2023-03-19T23:40:00.733Z,11.18
2023-03-19T23:42:32.843Z,11.18
2023-03-19T23:45:04.514Z,11.19
2023-03-19T23:47:33.733Z,11.21
2023-03-19T23:50:02.443Z,11.22
2023-03-19T23:52:31.205Z,11.22
2023-03-19T23:55:01.576Z,11.23
2023-03-19T23:57:30.356Z,11.25
2023-03-19T23:59:59.275Z,11.25
